sensor_id;sensor_type;location;lat;lon;timestamp;P1;durP1;ratioP1;P2;durP2;ratioP2
74974;SDS011;68459;50.836;19.138;2023-04-03T00:02:33;11.65;;;4.70;;
74974;SDS011;68459;50.836;19.138;2023-04-03T00:05:37;8.10;;;4.85;;
74974;SDS011;68459;50.836;19.138;2023-04-03T00:08:41;9.60;;;4.60;;
74974;SDS011;68459;50.836;19.138;2023-04-03T00:11:45;9.25;;;4.45;;
74974;SDS011;68459;50.836;19.138;2023-04-03T00:14:50;12.63;;;5.07;;
74974;SDS011;68459;50.836;19.138;2023-04-03T00:17:54;8.67;;;4.80;;
74974;SDS011;68459;50.836;19.138;2023-04-03T00:20:58;6.72;;;4.30;;
74974;SDS011;68459;50.836;19.138;2023-04-03T00:24:03;7.63;;;3.50;;
74974;SDS011;68459;50.836;19.138;2023-04-03T00:27:07;8.00;;;3.95;;
74974;SDS011;68459;50.836;19.138;2023-04-03T00:30:14;6.50;;;3.50;;
74974;SDS011;68459;50.836;19.138;2023-04-03T00:33:20;7.20;;;3.90;;
74974;SDS011;68459;50.836;19.138;2023-04-03T00:36:26;5.95;;;3.65;;
74974;SDS011;68459;50.836;19.138;2023-04-03T00:39:30;9.63;;;4.00;;
74974;SDS011;68459;50.836;19.138;2023-04-03T00:42:35;5.68;;;3.08;;
74974;SDS011;68459;50.836;19.138;2023-04-03T00:45:41;7.60;;;3.53;;
74974;SDS011;68459;50.836;19.138;2023-04-03T00:48:48;8.13;;;3.30;;
74974;SDS011;68459;50.836;19.138;2023-04-03T00:51:53;8.88;;;2.85;;
74974;SDS011;68459;50.836;19.138;2023-04-03T00:55:00;8.10;;;2.60;;
74974;SDS011;68459;50.836;19.138;2023-04-03T00:58:10;4.95;;;2.58;;
74974;SDS011;68459;50.836;19.138;2023-04-03T01:01:20;6.05;;;2.70;;
74974;SDS011;68459;50.836;19.138;2023-04-03T01:04:28;6.70;;;2.80;;
74974;SDS011;68459;50.836;19.138;2023-04-03T01:07:36;4.60;;;2.25;;
74974;SDS011;68459;50.836;19.138;2023-04-03T01:10:40;5.93;;;2.57;;
74974;SDS011;68459;50.836;19.138;2023-04-03T01:13:44;4.65;;;2.40;;
74974;SDS011;68459;50.836;19.138;2023-04-03T01:16:53;3.65;;;2.00;;
74974;SDS011;68459;50.836;19.138;2023-04-03T01:20:03;6.53;;;2.27;;
74974;SDS011;68459;50.836;19.138;2023-04-03T01:23:51;4.65;;;1.90;;
74974;SDS011;68459;50.836;19.138;2023-04-03T01:27:10;4.78;;;2.10;;
74974;SDS011;68459;50.836;19.138;2023-04-03T01:30:14;6.50;;;2.00;;
74974;SDS011;68459;50.836;19.138;2023-04-03T01:33:25;8.13;;;2.70;;
74974;SDS011;68459;50.836;19.138;2023-04-03T01:36:29;5.75;;;1.90;;
74974;SDS011;68459;50.836;19.138;2023-04-03T01:39:35;2.88;;;1.77;;
74974;SDS011;68459;50.836;19.138;2023-04-03T01:42:39;4.80;;;1.90;;
74974;SDS011;68459;50.836;19.138;2023-04-03T01:45:43;5.32;;;1.75;;
74974;SDS011;68459;50.836;19.138;2023-04-03T01:48:50;4.10;;;1.98;;
74974;SDS011;68459;50.836;19.138;2023-04-03T01:51:54;5.50;;;1.70;;
74974;SDS011;68459;50.836;19.138;2023-04-03T01:54:57;3.70;;;2.00;;
74974;SDS011;68459;50.836;19.138;2023-04-03T01:58:01;4.22;;;1.60;;
74974;SDS011;68459;50.836;19.138;2023-04-03T02:01:05;7.18;;;1.98;;
74974;SDS011;68459;50.836;19.138;2023-04-03T02:04:11;4.80;;;1.73;;
74974;SDS011;68459;50.836;19.138;2023-04-03T02:07:15;6.15;;;1.98;;
74974;SDS011;68459;50.836;19.138;2023-04-03T02:10:20;8.15;;;1.80;;
74974;SDS011;68459;50.836;19.138;2023-04-03T02:13:23;3.93;;;1.33;;
74974;SDS011;68459;50.836;19.138;2023-04-03T02:16:27;4.07;;;1.63;;
74974;SDS011;68459;50.836;19.138;2023-04-03T02:19:33;3.97;;;1.70;;
74974;SDS011;68459;50.836;19.138;2023-04-03T02:22:38;5.43;;;2.03;;
74974;SDS011;68459;50.836;19.138;2023-04-03T02:25:41;5.82;;;1.95;;
74974;SDS011;68459;50.836;19.138;2023-04-03T02:28:46;7.30;;;2.10;;
74974;SDS011;68459;50.836;19.138;2023-04-03T02:31:49;5.18;;;1.85;;
74974;SDS011;68459;50.836;19.138;2023-04-03T02:34:56;4.45;;;1.63;;
74974;SDS011;68459;50.836;19.138;2023-04-03T02:38:01;5.05;;;2.17;;
74974;SDS011;68459;50.836;19.138;2023-04-03T02:41:07;4.72;;;1.98;;
74974;SDS011;68459;50.836;19.138;2023-04-03T02:44:13;2.47;;;1.57;;
74974;SDS011;68459;50.836;19.138;2023-04-03T02:47:17;4.97;;;1.92;;
74974;SDS011;68459;50.836;19.138;2023-04-03T02:50:23;4.18;;;2.08;;
74974;SDS011;68459;50.836;19.138;2023-04-03T02:53:27;3.53;;;1.77;;
74974;SDS011;68459;50.836;19.138;2023-04-03T02:56:32;5.22;;;1.70;;
74974;SDS011;68459;50.836;19.138;2023-04-03T02:59:37;3.42;;;1.80;;
74974;SDS011;68459;50.836;19.138;2023-04-03T03:02:43;4.47;;;1.77;;
74974;SDS011;68459;50.836;19.138;2023-04-03T03:05:49;4.47;;;1.73;;
74974;SDS011;68459;50.836;19.138;2023-04-03T03:08:53;3.72;;;1.70;;
74974;SDS011;68459;50.836;19.138;2023-04-03T03:11:57;3.55;;;1.40;;
74974;SDS011;68459;50.836;19.138;2023-04-03T03:15:00;2.90;;;1.40;;
74974;SDS011;68459;50.836;19.138;2023-04-03T03:18:04;7.60;;;1.92;;
74974;SDS011;68459;50.836;19.138;2023-04-03T03:21:09;3.53;;;1.48;;
74974;SDS011;68459;50.836;19.138;2023-04-03T03:24:14;5.33;;;1.90;;
74974;SDS011;68459;50.836;19.138;2023-04-03T03:27:18;4.18;;;1.80;;
74974;SDS011;68459;50.836;19.138;2023-04-03T03:30:22;4.25;;;1.77;;
74974;SDS011;68459;50.836;19.138;2023-04-03T03:33:26;4.47;;;1.67;;
74974;SDS011;68459;50.836;19.138;2023-04-03T03:36:31;3.38;;;1.50;;
74974;SDS011;68459;50.836;19.138;2023-04-03T03:39:36;3.72;;;1.10;;
74974;SDS011;68459;50.836;19.138;2023-04-03T03:42:40;6.03;;;1.50;;
74974;SDS011;68459;50.836;19.138;2023-04-03T03:45:44;4.40;;;1.30;;
74974;SDS011;68459;50.836;19.138;2023-04-03T03:48:53;3.80;;;1.55;;
74974;SDS011;68459;50.836;19.138;2023-04-03T03:51:58;5.07;;;1.52;;
74974;SDS011;68459;50.836;19.138;2023-04-03T03:55:02;3.03;;;1.43;;
74974;SDS011;68459;50.836;19.138;2023-04-03T03:58:08;5.90;;;1.30;;
74974;SDS011;68459;50.836;19.138;2023-04-03T04:01:13;4.72;;;1.60;;
74974;SDS011;68459;50.836;19.138;2023-04-03T04:04:20;4.07;;;1.60;;
74974;SDS011;68459;50.836;19.138;2023-04-03T04:07:26;5.07;;;1.45;;
74974;SDS011;68459;50.836;19.138;2023-04-03T04:10:32;5.05;;;1.70;;
74974;SDS011;68459;50.836;19.138;2023-04-03T04:13:37;5.28;;;1.77;;
74974;SDS011;68459;50.836;19.138;2023-04-03T04:16:42;5.47;;;1.83;;
74974;SDS011;68459;50.836;19.138;2023-04-03T04:19:51;5.40;;;1.70;;
74974;SDS011;68459;50.836;19.138;2023-04-03T04:22:56;3.78;;;1.48;;
74974;SDS011;68459;50.836;19.138;2023-04-03T04:26:01;3.30;;;1.77;;
74974;SDS011;68459;50.836;19.138;2023-04-03T04:29:09;3.38;;;1.50;;
74974;SDS011;68459;50.836;19.138;2023-04-03T04:32:13;3.63;;;1.30;;
74974;SDS011;68459;50.836;19.138;2023-04-03T04:35:17;5.43;;;1.42;;
74974;SDS011;68459;50.836;19.138;2023-04-03T04:38:25;3.22;;;1.40;;
74974;SDS011;68459;50.836;19.138;2023-04-03T04:41:29;5.35;;;1.77;;
74974;SDS011;68459;50.836;19.138;2023-04-03T04:44:34;4.05;;;1.60;;
74974;SDS011;68459;50.836;19.138;2023-04-03T04:47:38;3.77;;;1.30;;
74974;SDS011;68459;50.836;19.138;2023-04-03T04:50:42;3.15;;;1.33;;
74974;SDS011;68459;50.836;19.138;2023-04-03T04:53:47;3.60;;;1.35;;
74974;SDS011;68459;50.836;19.138;2023-04-03T04:56:53;3.27;;;1.30;;
74974;SDS011;68459;50.836;19.138;2023-04-03T04:59:57;2.85;;;1.35;;
74974;SDS011;68459;50.836;19.138;2023-04-03T05:03:02;2.80;;;1.50;;
74974;SDS011;68459;50.836;19.138;2023-04-03T05:06:06;5.03;;;1.63;;
74974;SDS011;68459;50.836;19.138;2023-04-03T05:09:13;7.53;;;1.88;;
74974;SDS011;68459;50.836;19.138;2023-04-03T05:12:18;6.70;;;1.70;;
74974;SDS011;68459;50.836;19.138;2023-04-03T05:15:28;5.68;;;1.73;;
74974;SDS011;68459;50.836;19.138;2023-04-03T05:18:32;3.90;;;1.97;;
74974;SDS011;68459;50.836;19.138;2023-04-03T05:21:42;4.03;;;1.60;;
74974;SDS011;68459;50.836;19.138;2023-04-03T05:24:50;3.78;;;1.60;;
74974;SDS011;68459;50.836;19.138;2023-04-03T05:27:55;5.53;;;1.70;;
74974;SDS011;68459;50.836;19.138;2023-04-03T05:30:59;4.80;;;1.48;;
74974;SDS011;68459;50.836;19.138;2023-04-03T05:34:08;5.35;;;1.67;;
74974;SDS011;68459;50.836;19.138;2023-04-03T05:37:14;8.02;;;2.00;;
74974;SDS011;68459;50.836;19.138;2023-04-03T05:40:19;5.70;;;2.03;;
74974;SDS011;68459;50.836;19.138;2023-04-03T05:43:26;3.08;;;1.58;;
74974;SDS011;68459;50.836;19.138;2023-04-03T05:46:30;4.97;;;1.50;;
74974;SDS011;68459;50.836;19.138;2023-04-03T05:49:38;6.27;;;1.83;;
74974;SDS011;68459;50.836;19.138;2023-04-03T05:52:45;4.05;;;1.70;;
74974;SDS011;68459;50.836;19.138;2023-04-03T05:55:53;4.18;;;1.45;;
74974;SDS011;68459;50.836;19.138;2023-04-03T05:58:58;5.93;;;2.10;;
74974;SDS011;68459;50.836;19.138;2023-04-03T06:02:02;5.22;;;1.50;;
74974;SDS011;68459;50.836;19.138;2023-04-03T06:05:06;3.42;;;1.58;;
74974;SDS011;68459;50.836;19.138;2023-04-03T06:08:13;3.60;;;1.60;;
74974;SDS011;68459;50.836;19.138;2023-04-03T06:11:18;6.88;;;1.50;;
74974;SDS011;68459;50.836;19.138;2023-04-03T06:14:23;4.45;;;1.63;;
74974;SDS011;68459;50.836;19.138;2023-04-03T06:17:28;3.38;;;1.67;;
74974;SDS011;68459;50.836;19.138;2023-04-03T06:20:31;8.27;;;2.30;;
74974;SDS011;68459;50.836;19.138;2023-04-03T06:23:36;5.18;;;1.98;;
74974;SDS011;68459;50.836;19.138;2023-04-03T06:26:41;4.93;;;1.55;;
74974;SDS011;68459;50.836;19.138;2023-04-03T06:29:45;6.45;;;2.30;;
74974;SDS011;68459;50.836;19.138;2023-04-03T06:32:50;3.50;;;1.70;;
74974;SDS011;68459;50.836;19.138;2023-04-03T06:35:57;3.67;;;1.60;;
74974;SDS011;68459;50.836;19.138;2023-04-03T06:39:01;7.45;;;2.05;;
74974;SDS011;68459;50.836;19.138;2023-04-03T06:42:07;7.80;;;2.10;;
74974;SDS011;68459;50.836;19.138;2023-04-03T06:45:20;4.82;;;1.83;;
74974;SDS011;68459;50.836;19.138;2023-04-03T06:48:24;8.43;;;1.65;;
74974;SDS011;68459;50.836;19.138;2023-04-03T06:51:28;3.73;;;2.00;;
74974;SDS011;68459;50.836;19.138;2023-04-03T06:54:33;6.38;;;2.20;;
74974;SDS011;68459;50.836;19.138;2023-04-03T06:57:38;3.75;;;1.88;;
74974;SDS011;68459;50.836;19.138;2023-04-03T07:00:42;3.50;;;1.60;;
74974;SDS011;68459;50.836;19.138;2023-04-03T07:03:47;4.10;;;1.90;;
74974;SDS011;68459;50.836;19.138;2023-04-03T07:06:52;6.45;;;1.73;;
74974;SDS011;68459;50.836;19.138;2023-04-03T07:09:56;3.72;;;1.60;;
74974;SDS011;68459;50.836;19.138;2023-04-03T07:13:02;4.70;;;1.58;;
74974;SDS011;68459;50.836;19.138;2023-04-03T07:16:06;5.93;;;1.92;;
74974;SDS011;68459;50.836;19.138;2023-04-03T07:19:11;4.57;;;1.50;;
74974;SDS011;68459;50.836;19.138;2023-04-03T07:22:16;5.50;;;1.50;;
74974;SDS011;68459;50.836;19.138;2023-04-03T07:25:20;4.40;;;1.60;;
74974;SDS011;68459;50.836;19.138;2023-04-03T07:28:25;4.43;;;1.20;;
74974;SDS011;68459;50.836;19.138;2023-04-03T07:31:29;6.53;;;2.20;;
74974;SDS011;68459;50.836;19.138;2023-04-03T07:34:32;1.85;;;1.02;;
74974;SDS011;68459;50.836;19.138;2023-04-03T07:37:37;3.42;;;1.42;;
74974;SDS011;68459;50.836;19.138;2023-04-03T07:40:40;4.53;;;1.55;;
74974;SDS011;68459;50.836;19.138;2023-04-03T07:43:51;4.10;;;1.95;;
74974;SDS011;68459;50.836;19.138;2023-04-03T07:46:55;5.78;;;1.70;;
74974;SDS011;68459;50.836;19.138;2023-04-03T07:49:59;3.28;;;1.50;;
74974;SDS011;68459;50.836;19.138;2023-04-03T07:53:02;2.67;;;1.07;;
74974;SDS011;68459;50.836;19.138;2023-04-03T07:56:07;3.95;;;1.10;;
74974;SDS011;68459;50.836;19.138;2023-04-03T07:59:13;3.65;;;1.00;;
74974;SDS011;68459;50.836;19.138;2023-04-03T08:02:17;4.50;;;1.33;;
74974;SDS011;68459;50.836;19.138;2023-04-03T08:05:21;2.58;;;1.17;;
74974;SDS011;68459;50.836;19.138;2023-04-03T08:08:25;4.07;;;1.10;;
74974;SDS011;68459;50.836;19.138;2023-04-03T08:11:31;6.88;;;1.35;;
74974;SDS011;68459;50.836;19.138;2023-04-03T08:14:36;3.92;;;1.08;;
74974;SDS011;68459;50.836;19.138;2023-04-03T08:17:40;2.20;;;1.08;;
74974;SDS011;68459;50.836;19.138;2023-04-03T08:20:44;2.83;;;0.80;;
74974;SDS011;68459;50.836;19.138;2023-04-03T08:23:48;2.43;;;1.13;;
74974;SDS011;68459;50.836;19.138;2023-04-03T08:26:53;2.67;;;1.00;;
74974;SDS011;68459;50.836;19.138;2023-04-03T08:29:58;6.07;;;1.27;;
74974;SDS011;68459;50.836;19.138;2023-04-03T08:33:03;2.50;;;0.83;;
74974;SDS011;68459;50.836;19.138;2023-04-03T08:36:14;5.15;;;1.35;;
74974;SDS011;68459;50.836;19.138;2023-04-03T08:39:23;2.15;;;0.90;;
74974;SDS011;68459;50.836;19.138;2023-04-03T08:42:31;4.30;;;1.65;;
74974;SDS011;68459;50.836;19.138;2023-04-03T08:45:53;3.78;;;1.23;;
74974;SDS011;68459;50.836;19.138;2023-04-03T08:49:00;4.38;;;1.40;;
74974;SDS011;68459;50.836;19.138;2023-04-03T08:52:05;3.22;;;1.55;;
74974;SDS011;68459;50.836;19.138;2023-04-03T08:55:20;2.53;;;1.03;;
74974;SDS011;68459;50.836;19.138;2023-04-03T08:58:30;4.60;;;1.13;;
74974;SDS011;68459;50.836;19.138;2023-04-03T09:01:47;3.28;;;1.08;;
74974;SDS011;68459;50.836;19.138;2023-04-03T09:04:51;3.73;;;1.30;;
74974;SDS011;68459;50.836;19.138;2023-04-03T09:07:56;4.75;;;1.45;;
74974;SDS011;68459;50.836;19.138;2023-04-03T09:11:13;3.20;;;0.70;;
74974;SDS011;68459;50.836;19.138;2023-04-03T09:14:26;2.42;;;0.90;;
74974;SDS011;68459;50.836;19.138;2023-04-03T09:17:45;4.82;;;1.13;;
74974;SDS011;68459;50.836;19.138;2023-04-03T09:21:04;5.47;;;1.02;;
74974;SDS011;68459;50.836;19.138;2023-04-03T09:24:21;2.08;;;0.75;;
74974;SDS011;68459;50.836;19.138;2023-04-03T09:27:27;2.70;;;1.10;;
74974;SDS011;68459;50.836;19.138;2023-04-03T09:30:31;1.40;;;0.63;;
74974;SDS011;68459;50.836;19.138;2023-04-03T09:33:37;2.22;;;0.80;;
74974;SDS011;68459;50.836;19.138;2023-04-03T09:36:43;1.70;;;0.70;;
74974;SDS011;68459;50.836;19.138;2023-04-03T09:39:50;2.47;;;0.90;;
74974;SDS011;68459;50.836;19.138;2023-04-03T09:42:58;4.10;;;1.02;;
74974;SDS011;68459;50.836;19.138;2023-04-03T09:49:40;3.50;;;0.82;;
74974;SDS011;68459;50.836;19.138;2023-04-03T09:52:44;6.05;;;1.00;;
74974;SDS011;68459;50.836;19.138;2023-04-03T09:55:51;4.10;;;0.85;;
74974;SDS011;68459;50.836;19.138;2023-04-03T10:02:21;5.55;;;1.17;;
74974;SDS011;68459;50.836;19.138;2023-04-03T10:05:37;3.58;;;1.02;;
74974;SDS011;68459;50.836;19.138;2023-04-03T10:08:43;4.07;;;1.40;;
74974;SDS011;68459;50.836;19.138;2023-04-03T10:12:03;1.95;;;0.73;;
74974;SDS011;68459;50.836;19.138;2023-04-03T10:15:11;3.92;;;1.00;;
74974;SDS011;68459;50.836;19.138;2023-04-03T10:18:22;2.47;;;0.90;;
74974;SDS011;68459;50.836;19.138;2023-04-03T10:21:45;2.67;;;0.93;;
74974;SDS011;68459;50.836;19.138;2023-04-03T10:25:00;2.53;;;0.90;;
74974;SDS011;68459;50.836;19.138;2023-04-03T10:28:15;2.17;;;0.77;;
74974;SDS011;68459;50.836;19.138;2023-04-03T10:31:31;3.77;;;1.00;;
74974;SDS011;68459;50.836;19.138;2023-04-03T10:34:47;3.72;;;0.80;;
74974;SDS011;68459;50.836;19.138;2023-04-03T10:38:10;3.28;;;0.95;;
74974;SDS011;68459;50.836;19.138;2023-04-03T10:41:30;1.73;;;0.90;;
74974;SDS011;68459;50.836;19.138;2023-04-03T10:44:52;1.92;;;0.45;;
74974;SDS011;68459;50.836;19.138;2023-04-03T10:48:26;3.15;;;0.80;;
74974;SDS011;68459;50.836;19.138;2023-04-03T10:51:48;3.00;;;1.10;;
74974;SDS011;68459;50.836;19.138;2023-04-03T10:55:05;4.20;;;0.95;;
74974;SDS011;68459;50.836;19.138;2023-04-03T10:58:28;8.75;;;1.13;;
74974;SDS011;68459;50.836;19.138;2023-04-03T11:01:38;3.13;;;0.80;;
74974;SDS011;68459;50.836;19.138;2023-04-03T11:04:48;2.43;;;0.83;;
74974;SDS011;68459;50.836;19.138;2023-04-03T11:08:01;2.75;;;1.08;;
74974;SDS011;68459;50.836;19.138;2023-04-03T11:11:17;4.78;;;1.02;;
74974;SDS011;68459;50.836;19.138;2023-04-03T11:14:26;2.37;;;1.00;;
74974;SDS011;68459;50.836;19.138;2023-04-03T11:17:33;2.60;;;0.95;;
74974;SDS011;68459;50.836;19.138;2023-04-03T11:20:47;2.28;;;0.75;;
74974;SDS011;68459;50.836;19.138;2023-04-03T11:24:05;1.50;;;0.60;;
74974;SDS011;68459;50.836;19.138;2023-04-03T11:27:26;2.80;;;1.10;;
74974;SDS011;68459;50.836;19.138;2023-04-03T11:30:42;2.60;;;1.15;;
74974;SDS011;68459;50.836;19.138;2023-04-03T11:34:02;2.17;;;0.73;;
74974;SDS011;68459;50.836;19.138;2023-04-03T11:37:25;1.53;;;0.67;;
74974;SDS011;68459;50.836;19.138;2023-04-03T11:40:37;3.53;;;0.88;;
74974;SDS011;68459;50.836;19.138;2023-04-03T11:43:55;4.05;;;1.20;;
74974;SDS011;68459;50.836;19.138;2023-04-03T11:47:02;2.20;;;0.93;;
74974;SDS011;68459;50.836;19.138;2023-04-03T11:50:10;2.67;;;1.10;;
74974;SDS011;68459;50.836;19.138;2023-04-03T11:53:43;1.83;;;0.70;;
74974;SDS011;68459;50.836;19.138;2023-04-03T11:56:47;2.55;;;1.00;;
74974;SDS011;68459;50.836;19.138;2023-04-03T11:59:52;3.97;;;1.25;;
74974;SDS011;68459;50.836;19.138;2023-04-03T12:02:57;2.65;;;1.02;;
74974;SDS011;68459;50.836;19.138;2023-04-03T12:13:32;3.83;;;1.00;;
74974;SDS011;68459;50.836;19.138;2023-04-03T12:16:43;2.30;;;1.00;;
74974;SDS011;68459;50.836;19.138;2023-04-03T12:19:50;2.60;;;1.27;;
74974;SDS011;68459;50.836;19.138;2023-04-03T12:23:07;3.22;;;1.20;;
74974;SDS011;68459;50.836;19.138;2023-04-03T12:26:19;2.38;;;1.20;;
74974;SDS011;68459;50.836;19.138;2023-04-03T12:29:41;2.70;;;1.20;;
74974;SDS011;68459;50.836;19.138;2023-04-03T12:36:36;4.43;;;1.40;;
74974;SDS011;68459;50.836;19.138;2023-04-03T12:39:55;2.80;;;1.02;;
74974;SDS011;68459;50.836;19.138;2023-04-03T12:43:19;2.40;;;1.07;;
74974;SDS011;68459;50.836;19.138;2023-04-03T12:46:49;2.38;;;0.88;;
74974;SDS011;68459;50.836;19.138;2023-04-03T12:49:56;3.10;;;1.00;;
74974;SDS011;68459;50.836;19.138;2023-04-03T12:53:04;3.53;;;1.20;;
74974;SDS011;68459;50.836;19.138;2023-04-03T12:56:19;2.75;;;1.00;;
74974;SDS011;68459;50.836;19.138;2023-04-03T12:59:26;2.63;;;1.20;;
74974;SDS011;68459;50.836;19.138;2023-04-03T13:02:31;2.65;;;1.02;;
74974;SDS011;68459;50.836;19.138;2023-04-03T13:05:43;2.17;;;0.80;;
74974;SDS011;68459;50.836;19.138;2023-04-03T13:08:49;3.20;;;0.85;;
74974;SDS011;68459;50.836;19.138;2023-04-03T13:11:56;2.20;;;0.80;;
74974;SDS011;68459;50.836;19.138;2023-04-03T13:15:11;2.28;;;0.98;;
74974;SDS011;68459;50.836;19.138;2023-04-03T13:18:23;2.85;;;0.82;;
74974;SDS011;68459;50.836;19.138;2023-04-03T13:21:32;2.33;;;1.00;;
74974;SDS011;68459;50.836;19.138;2023-04-03T13:24:38;2.92;;;1.20;;
74974;SDS011;68459;50.836;19.138;2023-04-03T13:27:43;3.47;;;1.10;;
74974;SDS011;68459;50.836;19.138;2023-04-03T13:30:54;2.92;;;1.15;;
74974;SDS011;68459;50.836;19.138;2023-04-03T13:34:05;4.88;;;1.17;;
74974;SDS011;68459;50.836;19.138;2023-04-03T13:37:20;3.97;;;1.07;;
74974;SDS011;68459;50.836;19.138;2023-04-03T13:40:26;3.90;;;1.23;;
74974;SDS011;68459;50.836;19.138;2023-04-03T13:43:42;5.20;;;1.08;;
74974;SDS011;68459;50.836;19.138;2023-04-03T13:46:46;3.80;;;1.23;;
74974;SDS011;68459;50.836;19.138;2023-04-03T13:50:00;3.35;;;1.38;;
74974;SDS011;68459;50.836;19.138;2023-04-03T13:53:17;2.53;;;1.27;;
74974;SDS011;68459;50.836;19.138;2023-04-03T13:56:23;2.40;;;0.98;;
74974;SDS011;68459;50.836;19.138;2023-04-03T13:59:33;4.28;;;1.20;;
74974;SDS011;68459;50.836;19.138;2023-04-03T14:02:38;2.20;;;1.00;;
74974;SDS011;68459;50.836;19.138;2023-04-03T14:05:44;4.32;;;1.17;;
74974;SDS011;68459;50.836;19.138;2023-04-03T14:08:49;4.40;;;0.90;;
74974;SDS011;68459;50.836;19.138;2023-04-03T14:11:54;3.75;;;2.05;;
74974;SDS011;68459;50.836;19.138;2023-04-03T14:15:04;5.97;;;1.50;;
74974;SDS011;68459;50.836;19.138;2023-04-03T14:18:19;5.13;;;1.08;;
74974;SDS011;68459;50.836;19.138;2023-04-03T14:21:24;3.15;;;1.13;;
74974;SDS011;68459;50.836;19.138;2023-04-03T14:24:29;3.35;;;1.00;;
74974;SDS011;68459;50.836;19.138;2023-04-03T14:27:34;2.72;;;0.88;;
74974;SDS011;68459;50.836;19.138;2023-04-03T14:30:41;3.70;;;1.10;;
74974;SDS011;68459;50.836;19.138;2023-04-03T14:33:45;1.85;;;0.90;;
74974;SDS011;68459;50.836;19.138;2023-04-03T14:36:50;3.38;;;1.10;;
74974;SDS011;68459;50.836;19.138;2023-04-03T14:39:56;4.73;;;1.10;;
74974;SDS011;68459;50.836;19.138;2023-04-03T14:43:02;3.22;;;1.17;;
74974;SDS011;68459;50.836;19.138;2023-04-03T14:46:09;2.33;;;0.90;;
74974;SDS011;68459;50.836;19.138;2023-04-03T14:49:19;2.53;;;1.17;;
74974;SDS011;68459;50.836;19.138;2023-04-03T14:52:29;4.00;;;1.40;;
74974;SDS011;68459;50.836;19.138;2023-04-03T14:55:37;3.75;;;1.20;;
74974;SDS011;68459;50.836;19.138;2023-04-03T14:58:41;5.53;;;1.42;;
74974;SDS011;68459;50.836;19.138;2023-04-03T15:01:45;2.63;;;1.07;;
74974;SDS011;68459;50.836;19.138;2023-04-03T15:04:49;4.90;;;1.20;;
74974;SDS011;68459;50.836;19.138;2023-04-03T15:07:57;3.85;;;1.25;;
74974;SDS011;68459;50.836;19.138;2023-04-03T15:11:03;3.43;;;1.40;;
74974;SDS011;68459;50.836;19.138;2023-04-03T15:14:08;5.22;;;2.13;;
74974;SDS011;68459;50.836;19.138;2023-04-03T15:17:14;4.43;;;1.60;;
74974;SDS011;68459;50.836;19.138;2023-04-03T15:20:23;5.18;;;1.55;;
74974;SDS011;68459;50.836;19.138;2023-04-03T15:23:29;3.95;;;1.25;;
74974;SDS011;68459;50.836;19.138;2023-04-03T15:26:34;4.75;;;1.30;;
74974;SDS011;68459;50.836;19.138;2023-04-03T15:29:38;4.18;;;1.38;;
74974;SDS011;68459;50.836;19.138;2023-04-03T15:32:45;3.40;;;1.40;;
74974;SDS011;68459;50.836;19.138;2023-04-03T15:35:49;3.65;;;1.38;;
74974;SDS011;68459;50.836;19.138;2023-04-03T15:38:56;3.80;;;1.05;;
74974;SDS011;68459;50.836;19.138;2023-04-03T15:42:02;2.83;;;1.13;;
74974;SDS011;68459;50.836;19.138;2023-04-03T15:45:08;3.27;;;1.10;;
74974;SDS011;68459;50.836;19.138;2023-04-03T15:48:14;3.00;;;1.20;;
74974;SDS011;68459;50.836;19.138;2023-04-03T15:51:18;2.75;;;1.25;;
74974;SDS011;68459;50.836;19.138;2023-04-03T15:54:22;4.78;;;1.10;;
74974;SDS011;68459;50.836;19.138;2023-04-03T15:57:28;2.63;;;1.15;;
74974;SDS011;68459;50.836;19.138;2023-04-03T16:00:37;4.78;;;1.33;;
74974;SDS011;68459;50.836;19.138;2023-04-03T16:03:41;2.87;;;1.20;;
74974;SDS011;68459;50.836;19.138;2023-04-03T16:06:48;4.55;;;1.60;;
74974;SDS011;68459;50.836;19.138;2023-04-03T16:09:53;5.07;;;1.70;;
74974;SDS011;68459;50.836;19.138;2023-04-03T16:12:59;4.73;;;1.73;;
74974;SDS011;68459;50.836;19.138;2023-04-03T16:16:03;3.30;;;1.40;;
74974;SDS011;68459;50.836;19.138;2023-04-03T16:19:08;4.43;;;1.80;;
74974;SDS011;68459;50.836;19.138;2023-04-03T16:22:12;3.63;;;1.63;;
74974;SDS011;68459;50.836;19.138;2023-04-03T16:25:17;3.33;;;1.30;;
74974;SDS011;68459;50.836;19.138;2023-04-03T16:28:23;4.05;;;1.45;;
74974;SDS011;68459;50.836;19.138;2023-04-03T16:31:27;4.68;;;1.80;;
74974;SDS011;68459;50.836;19.138;2023-04-03T16:34:31;5.10;;;1.70;;
74974;SDS011;68459;50.836;19.138;2023-04-03T16:37:35;3.97;;;1.52;;
74974;SDS011;68459;50.836;19.138;2023-04-03T16:40:39;4.25;;;1.52;;
74974;SDS011;68459;50.836;19.138;2023-04-03T16:43:45;4.33;;;1.70;;
74974;SDS011;68459;50.836;19.138;2023-04-03T16:46:49;4.63;;;1.50;;
74974;SDS011;68459;50.836;19.138;2023-04-03T16:49:52;4.15;;;1.60;;
74974;SDS011;68459;50.836;19.138;2023-04-03T16:52:56;5.63;;;1.60;;
74974;SDS011;68459;50.836;19.138;2023-04-03T16:56:01;5.68;;;1.70;;
74974;SDS011;68459;50.836;19.138;2023-04-03T16:59:06;4.57;;;1.83;;
74974;SDS011;68459;50.836;19.138;2023-04-03T17:02:10;5.78;;;2.10;;
74974;SDS011;68459;50.836;19.138;2023-04-03T17:05:14;4.47;;;1.90;;
74974;SDS011;68459;50.836;19.138;2023-04-03T17:08:18;5.78;;;2.03;;
74974;SDS011;68459;50.836;19.138;2023-04-03T17:11:22;4.25;;;1.40;;
74974;SDS011;68459;50.836;19.138;2023-04-03T17:14:29;5.67;;;2.00;;
74974;SDS011;68459;50.836;19.138;2023-04-03T17:17:33;4.93;;;1.90;;
74974;SDS011;68459;50.836;19.138;2023-04-03T17:20:39;5.95;;;2.10;;
74974;SDS011;68459;50.836;19.138;2023-04-03T17:23:44;5.22;;;1.85;;
74974;SDS011;68459;50.836;19.138;2023-04-03T17:26:54;4.82;;;1.55;;
74974;SDS011;68459;50.836;19.138;2023-04-03T17:29:59;4.30;;;1.50;;
74974;SDS011;68459;50.836;19.138;2023-04-03T17:33:04;4.25;;;1.85;;
74974;SDS011;68459;50.836;19.138;2023-04-03T17:36:07;6.63;;;1.90;;
74974;SDS011;68459;50.836;19.138;2023-04-03T17:39:12;4.28;;;1.90;;
74974;SDS011;68459;50.836;19.138;2023-04-03T17:42:16;3.35;;;1.73;;
74974;SDS011;68459;50.836;19.138;2023-04-03T17:45:22;5.77;;;1.87;;
74974;SDS011;68459;50.836;19.138;2023-04-03T17:48:26;5.63;;;2.28;;
74974;SDS011;68459;50.836;19.138;2023-04-03T17:51:30;5.05;;;1.80;;
74974;SDS011;68459;50.836;19.138;2023-04-03T17:54:35;5.10;;;2.10;;
74974;SDS011;68459;50.836;19.138;2023-04-03T17:57:39;6.65;;;2.63;;
74974;SDS011;68459;50.836;19.138;2023-04-03T18:00:45;4.35;;;1.80;;
74974;SDS011;68459;50.836;19.138;2023-04-03T18:03:50;5.88;;;2.38;;
74974;SDS011;68459;50.836;19.138;2023-04-03T18:06:58;8.30;;;2.33;;
74974;SDS011;68459;50.836;19.138;2023-04-03T18:10:04;4.18;;;2.22;;
74974;SDS011;68459;50.836;19.138;2023-04-03T18:13:10;7.93;;;2.95;;
74974;SDS011;68459;50.836;19.138;2023-04-03T18:16:18;8.13;;;3.83;;
74974;SDS011;68459;50.836;19.138;2023-04-03T18:19:22;8.90;;;3.50;;
74974;SDS011;68459;50.836;19.138;2023-04-03T18:22:30;8.63;;;3.60;;
74974;SDS011;68459;50.836;19.138;2023-04-03T18:25:35;7.28;;;2.90;;
74974;SDS011;68459;50.836;19.138;2023-04-03T18:28:41;9.48;;;3.40;;
74974;SDS011;68459;50.836;19.138;2023-04-03T18:31:52;11.13;;;4.20;;
74974;SDS011;68459;50.836;19.138;2023-04-03T18:34:59;7.03;;;3.20;;
74974;SDS011;68459;50.836;19.138;2023-04-03T18:38:03;7.30;;;3.27;;
74974;SDS011;68459;50.836;19.138;2023-04-03T18:41:07;8.40;;;3.17;;
74974;SDS011;68459;50.836;19.138;2023-04-03T18:44:11;10.15;;;2.67;;
74974;SDS011;68459;50.836;19.138;2023-04-03T18:47:22;5.63;;;2.83;;
74974;SDS011;68459;50.836;19.138;2023-04-03T18:50:29;6.60;;;2.22;;